Time;durP1;ratioP1;P1;durP2;ratioP2;P2;SDS_P1;SDS_P2;PMS_P1;PMS_P2;Temp;Humidity;BMP_temperature;BMP_pressure;BME280_temperature;BME280_humidity;BME280_pressure;Samples;Min_cycle;Max_cycle;Signal;HPM_P1;HPM_P2
2021/09/28 00:02:01;;;;;;;9.02;2.50;;;12.50;99.90;;;;;;5074590;28;20151;-82
2021/09/28 00:04:47;;;;;;;7.72;2.40;;;13.20;99.90;;;;;;5074635;28;20040;-83
2021/09/28 00:07:16;;;;;;;;;;;12.30;99.90;;;;;;5075684;28;20367;-83
2021/09/28 00:09:53;;;;;;;7.50;2.50;;;12.30;99.90;;;;;;5074460;28;20384;-83
2021/09/28 00:12:22;;;;;;;13.60;2.70;;;12.50;99.90;;;;;;5054671;28;20048;-83
2021/09/28 00:15:03;;;;;;;;;;;;;;;;;;;;;
2021/09/28 00:17:38;;;;;;;8.75;3.10;;;12.50;99.90;;;;;;5091094;28;20052;-83
2021/09/28 00:20:09;;;;;;;6.80;2.47;;;12.40;99.90;;;;;;5089986;28;20036;-83
2021/09/28 00:22:57;;;;;;;9.43;2.53;;;12.40;99.90;;;;;;5075403;28;20396;-82
2021/09/28 00:25:41;;;;;;;9.30;2.60;;;12.40;99.90;;;;;;5058662;28;20040;-83
2021/09/28 00:28:21;;;;;;;12.02;3.03;;;12.40;99.90;;;;;;5074937;28;20036;-84
2021/09/28 00:30:55;;;;;;;10.35;2.80;;;11.90;99.90;;;;;;5074102;28;20048;-82
2021/09/28 00:33:24;;;;;;;7.45;2.90;;;12.60;99.90;;;;;;5074995;28;20036;-82
2021/09/28 00:36:22;;;;;;;11.35;3.05;;;12.60;99.90;;;;;;5054675;28;20040;-82
2021/09/28 00:38:59;;;;;;;8.32;3.03;;;12.60;99.90;;;;;;5070357;28;20460;-83
2021/09/28 00:41:31;;;;;;;8.75;3.20;;;12.40;99.90;;;;;;5074515;28;20395;-83
2021/09/28 00:44:06;;;;;;;7.15;3.05;;;12.40;99.90;;;;;;5074661;28;20054;-83
2021/09/28 00:46:51;;;;;;;9.40;2.97;;;12.30;99.90;;;;;;5075737;28;20036;-82
2021/09/28 00:49:25;;;;;;;13.27;3.20;;;11.90;99.90;;;;;;5057598;28;20529;-83
2021/09/28 00:51:51;;;;;;;7.63;3.65;;;12.40;99.90;;;;;;5090742;28;20093;-83
2021/09/28 00:54:18;;;;;;;8.45;3.20;;;12.40;99.90;;;;;;5073762;28;20096;-82
2021/09/28 00:56:47;;;;;;;14.07;3.15;;;12.30;99.90;;;;;;5117227;28;20070;-82
2021/09/28 00:59:43;;;;;;;9.48;2.95;;;12.30;99.90;;;;;;5097997;28;20035;-82
2021/09/28 01:02:18;;;;;;;5.97;2.85;;;12.10;99.90;;;;;;5078522;28;20376;-82
2021/09/28 01:04:47;;;;;;;7.72;2.83;;;12.60;99.90;;;;;;5097065;28;20077;-83
2021/09/28 01:07:13;;;;;;;9.40;3.35;;;12.30;99.90;;;;;;5114761;28;20039;-83
2021/09/28 01:09:42;;;;;;;10.23;3.70;;;12.30;99.90;;;;;;5097517;28;20039;-82
2021/09/28 01:12:24;;;;;;;10.32;3.20;;;12.30;99.90;;;;;;5116736;28;20082;-82
2021/09/28 01:14:55;;;;;;;8.73;3.35;;;12.30;99.90;;;;;;5097402;27;20039;-82
2021/09/28 01:17:36;;;;;;;7.60;3.10;;;12.30;99.90;;;;;;5097748;28;20120;-82
2021/09/28 01:20:05;;;;;;;9.43;3.35;;;12.30;99.90;;;;;;5081759;28;20058;-82
2021/09/28 01:22:31;;;;;;;7.95;3.83;;;11.80;99.90;;;;;;5097611;28;20474;-83
2021/09/28 01:25:00;;;;;;;10.48;3.75;;;12.20;99.90;;;;;;5097378;28;20035;-82
2021/09/28 01:27:35;;;;;;;6.78;3.22;;;12.20;99.90;;;;;;5097644;28;20039;-82
2021/09/28 01:30:01;;;;;;;10.20;3.57;;;12.20;99.90;;;;;;5097858;28;20043;-82
2021/09/28 01:32:27;;;;;;;5.78;3.20;;;12.20;99.90;;;;;;5099950;27;20330;-82
2021/09/28 01:34:56;;;;;;;7.28;3.28;;;12.80;99.90;;;;;;5118429;27;20051;-83
2021/09/28 01:37:28;;;;;;;9.15;3.78;;;12.20;99.90;;;;;;5100871;27;20494;-82
2021/09/28 01:40:02;;;;;;;10.85;3.92;;;12.20;99.90;;;;;;5076177;28;20351;-82
2021/09/28 01:42:38;;;;;;;7.75;3.83;;;12.20;99.90;;;;;;5060200;28;20048;-82
2021/09/28 01:45:07;;;;;;;9.40;4.20;;;12.30;99.90;;;;;;5060344;28;20058;-82
2021/09/28 01:47:33;;;;;;;9.85;3.80;;;12.20;99.90;;;;;;5059360;28;20520;-83
2021/09/28 01:50:03;;;;;;;14.13;3.92;;;12.20;99.90;;;;;;5059641;28;20047;-82
2021/09/28 01:52:29;;;;;;;10.25;3.80;;;12.10;99.90;;;;;;5075831;28;20549;-82
2021/09/28 01:55:03;;;;;;;13.50;4.15;;;12.20;99.90;;;;;;5075651;28;20127;-82
2021/09/28 01:57:33;;;;;;;10.50;4.43;;;12.20;99.90;;;;;;5059637;28;20515;-82
2021/09/28 02:00:07;;;;;;;14.88;4.40;;;12.20;99.90;;;;;;5093249;28;20040;-83
2021/09/28 02:02:36;;;;;;;8.70;4.45;;;12.10;99.90;;;;;;5060247;28;20515;-83
2021/09/28 02:05:03;;;;;;;7.68;4.47;;;12.10;99.90;;;;;;5093242;28;20082;-84
2021/09/28 02:07:49;;;;;;;8.43;4.03;;;11.80;99.90;;;;;;5074689;28;20048;-84
2021/09/28 02:10:18;;;;;;;6.65;3.95;;;12.50;99.90;;;;;;5049478;28;20137;-84
2021/09/28 02:12:56;;;;;;;11.10;4.85;;;12.10;99.90;;;;;;5086075;27;20031;-84
2021/09/28 02:15:28;;;;;;;11.52;4.82;;;12.00;99.90;;;;;;5100763;27;20096;-83
2021/09/28 02:17:54;;;;;;;13.52;4.47;;;12.00;99.90;;;;;;5101127;27;20043;-83
2021/09/28 02:20:32;;;;;;;9.93;4.63;;;12.00;99.90;;;;;;5084386;27;20042;-84
2021/09/28 02:23:03;;;;;;;8.95;4.47;;;12.00;99.90;;;;;;5100069;27;20039;-84
2021/09/28 02:25:35;;;;;;;8.82;4.18;;;12.00;99.90;;;;;;5116758;27;20067;-84
2021/09/28 02:28:09;;;;;;;9.98;4.15;;;12.00;99.90;;;;;;5121148;27;20372;-83
2021/09/28 02:30:37;;;;;;;10.82;4.53;;;12.00;99.90;;;;;;5117097;27;20038;-84
2021/09/28 02:33:07;;;;;;;7.63;4.57;;;11.90;99.90;;;;;;5099359;27;20140;-84
2021/09/28 02:35:33;;;;;;;10.60;5.05;;;12.00;99.90;;;;;;5117158;27;20403;-84
2021/09/28 02:38:02;;;;;;;12.85;4.57;;;11.90;99.90;;;;;;5116670;27;20487;-84
2021/09/28 02:40:33;;;;;;;14.07;5.15;;;11.90;99.90;;;;;;5097860;27;20043;-84
2021/09/28 02:43:06;;;;;;;19.08;6.00;;;12.00;99.90;;;;;;5099430;27;20067;-84
2021/09/28 02:45:52;;;;;;;11.60;4.68;;;11.90;99.90;;;;;;5116906;27;20114;-84
2021/09/28 02:48:26;;;;;;;8.30;4.68;;;11.70;99.90;;;;;;5101707;27;20447;-84
2021/09/28 02:50:52;;;;;;;11.75;4.88;;;11.90;99.90;;;;;;5083366;27;20039;-84
2021/09/28 02:53:26;;;;;;;10.85;5.10;;;11.90;99.90;;;;;;5099822;27;20111;-84
2021/09/28 02:56:03;;;;;;;12.75;5.40;;;11.90;99.90;;;;;;5094247;28;20487;-84
2021/09/28 02:58:38;;;;;;;12.43;5.50;;;11.90;99.90;;;;;;5097736;28;20045;-84
2021/09/28 03:01:17;;;;;;;12.48;5.28;;;11.60;99.90;;;;;;5112809;28;20540;-84
2021/09/28 03:03:50;;;;;;;12.38;5.43;;;11.90;99.90;;;;;;5096118;28;20044;-84
2021/09/28 03:06:19;;;;;;;10.30;5.78;;;11.80;99.90;;;;;;5096175;28;20048;-84
2021/09/28 03:08:56;;;;;;;11.48;5.18;;;11.90;99.90;;;;;;5084279;28;20048;-83
2021/09/28 03:11:30;;;;;;;13.18;5.80;;;11.80;99.90;;;;;;5111882;28;20126;-84
2021/09/28 03:14:07;;;;;;;10.48;6.15;;;11.80;99.90;;;;;;5094884;28;20059;-84
2021/09/28 03:16:50;;;;;;;;;;;;;;;;;;;;;
2021/09/28 03:19:27;;;;;;;14.30;6.15;;;11.80;99.90;;;;;;5113070;28;20062;-83
2021/09/28 03:22:29;;;;;;;17.75;6.65;;;11.90;99.90;;;;;;5085234;28;20043;-83
2021/09/28 03:24:52;;;;;;;16.80;6.18;;;11.80;99.90;;;;;;5098839;28;20060;-84
2021/09/28 03:27:30;;;;;;;12.60;6.23;;;11.80;99.90;;;;;;5094213;28;20126;-84
2021/09/28 03:30:04;;;;;;;11.73;6.22;;;11.80;99.90;;;;;;5079366;28;20277;-83
2021/09/28 03:32:42;;;;;;;16.20;7.00;;;11.90;99.90;;;;;;5070017;28;20032;-84
2021/09/28 03:35:11;;;;;;;15.10;6.65;;;11.80;99.90;;;;;;5081392;28;20097;-84
2021/09/28 03:37:39;;;;;;;13.32;6.60;;;11.70;99.90;;;;;;5095815;28;20031;-84
2021/09/28 03:40:09;;;;;;;12.70;6.70;;;11.80;99.90;;;;;;5095253;28;20117;-84
2021/09/28 03:42:35;;;;;;;14.77;6.80;;;11.80;99.90;;;;;;5081557;28;20031;-84
2021/09/28 03:45:07;;;;;;;16.08;6.70;;;11.70;99.90;;;;;;5097150;28;20541;-84
2021/09/28 03:47:43;;;;;;;16.65;6.65;;;11.80;99.90;;;;;;5097050;28;20097;-84
2021/09/28 03:50:15;;;;;;;18.20;7.32;;;11.80;99.90;;;;;;5097239;28;20100;-83
2021/09/28 03:52:45;;;;;;;17.40;6.85;;;11.80;99.90;;;;;;5113802;28;20077;-84
2021/09/28 03:55:22;;;;;;;;;;;;;;;;;;;;;
2021/09/28 03:58:12;;;;;;;15.38;7.35;;;11.80;99.90;;;;;;5134154;27;20051;-83
2021/09/28 04:00:38;;;;;;;16.48;7.45;;;11.50;99.90;;;;;;5099344;27;20122;-84
2021/09/28 04:03:05;;;;;;;16.35;7.43;;;11.80;99.90;;;;;;5099466;27;20305;-84
2021/09/28 04:05:32;;;;;;;14.57;7.50;;;11.60;99.90;;;;;;5099013;27;20394;-84
2021/09/28 04:07:58;;;;;;;18.80;7.50;;;11.60;99.90;;;;;;5098750;27;20039;-84
2021/09/28 04:10:37;;;;;;;15.98;7.30;;;11.80;99.90;;;;;;5115815;28;20109;-84
2021/09/28 04:13:08;;;;;;;16.25;7.70;;;11.80;99.90;;;;;;5115428;27;20084;-84
2021/09/28 04:15:41;;;;;;;17.88;7.00;;;11.70;99.90;;;;;;5098323;27;20035;-84
2021/09/28 04:18:12;;;;;;;15.38;7.22;;;11.70;99.90;;;;;;5114930;27;20064;-84
2021/09/28 04:20:49;;;;;;;17.67;8.00;;;11.70;99.90;;;;;;5115407;28;20427;-84
2021/09/28 04:23:18;;;;;;;17.25;7.57;;;11.70;99.90;;;;;;5081818;28;20125;-84
2021/09/28 04:25:46;;;;;;;15.30;7.38;;;11.70;99.90;;;;;;5098490;28;20078;-84
2021/09/28 04:28:16;;;;;;;18.38;7.90;;;11.70;99.90;;;;;;5097991;28;20045;-84
2021/09/28 04:31:00;;;;;;;19.55;8.35;;;11.60;99.90;;;;;;5086838;28;20079;-84
2021/09/28 04:33:30;;;;;;;18.77;7.90;;;11.60;99.90;;;;;;5097780;28;20034;-84
2021/09/28 04:36:09;;;;;;;17.95;8.02;;;11.60;99.90;;;;;;5113994;28;20051;-84
2021/09/28 04:38:51;;;;;;;19.50;7.07;;;11.70;99.90;;;;;;5097945;28;20035;-84
2021/09/28 04:41:20;;;;;;;20.60;7.78;;;11.70;99.90;;;;;;5097918;28;20043;-84
2021/09/28 04:43:52;;;;;;;18.23;8.13;;;11.70;99.90;;;;;;5102415;28;20118;-84
2021/09/28 04:49:25;;;;;;;17.63;7.28;;;11.70;99.90;;;;;;5101007;27;20039;-84
2021/09/28 04:52:00;;;;;;;19.75;8.13;;;11.70;99.90;;;;;;5122394;28;20051;-84
2021/09/28 04:54:30;;;;;;;20.25;7.95;;;11.60;99.90;;;;;;5097627;28;20078;-84
2021/09/28 04:57:12;;;;;;;14.57;7.55;;;12.30;99.90;;;;;;5094754;28;20048;-84
2021/09/28 04:59:39;;;;;;;13.52;7.82;;;11.80;99.90;;;;;;5060633;28;20452;-84
2021/09/28 05:02:26;;;;;;;15.80;7.03;;;11.60;99.90;;;;;;5086332;28;20047;-84
2021/09/28 05:05:06;;;;;;;19.55;7.47;;;11.60;99.90;;;;;;5098530;28;20035;-84
2021/09/28 05:07:34;;;;;;;23.48;8.25;;;11.10;99.90;;;;;;5081794;28;20046;-84
2021/09/28 05:10:00;;;;;;;18.90;7.78;;;11.30;99.90;;;;;;5098131;28;20124;-84
2021/09/28 05:12:31;;;;;;;13.27;7.88;;;11.60;99.90;;;;;;5098902;28;20123;-84
2021/09/28 05:15:06;;;;;;;15.57;8.02;;;11.20;99.90;;;;;;5067624;28;20223;-84
2021/09/28 05:17:37;;;;;;;16.25;8.10;;;11.60;99.90;;;;;;5115331;28;20101;-84
2021/09/28 05:20:11;;;;;;;18.30;7.95;;;11.60;99.90;;;;;;5052150;28;20367;-84
2021/09/28 05:22:58;;;;;;;19.25;8.13;;;11.50;99.90;;;;;;5115031;28;20110;-84
2021/09/28 05:25:33;;;;;;;15.32;8.68;;;11.80;99.90;;;;;;5099431;28;20046;-84
2021/09/28 05:28:03;;;;;;;23.27;8.23;;;11.60;99.90;;;;;;5098395;28;20391;-84
2021/09/28 05:30:29;;;;;;;21.33;8.88;;;11.50;99.90;;;;;;5098035;28;20036;-84
2021/09/28 05:33:07;;;;;;;20.90;7.88;;;11.50;99.90;;;;;;5097509;28;20190;-84
2021/09/28 05:35:37;;;;;;;16.52;7.97;;;11.50;99.90;;;;;;5114629;28;20050;-84
2021/09/28 05:38:06;;;;;;;20.90;8.82;;;11.50;99.90;;;;;;5097814;28;20043;-84
2021/09/28 05:41:15;;;;;;;18.52;7.85;;;11.50;99.90;;;;;;5099195;28;20114;-84
2021/09/28 05:44:17;;;;;;;15.68;8.40;;;11.50;99.90;;;;;;5097246;28;20135;-83
2021/09/28 05:47:13;;;;;;;16.05;8.18;;;11.10;99.90;;;;;;5092730;28;20047;-84
2021/09/28 05:50:03;;;;;;;19.30;8.25;;;11.40;99.90;;;;;;5104189;28;20079;-83
2021/09/28 05:52:35;;;;;;;14.68;7.85;;;11.50;99.90;;;;;;5098006;28;20059;-84
2021/09/28 05:55:36;;;;;;;19.77;8.30;;;11.50;99.90;;;;;;5114458;28;20035;-84
2021/09/28 05:58:41;;;;;;;;;;;11.50;99.90;;;;;;5105740;28;20118;-83
2021/09/28 06:01:34;;;;;;;;;;;;;;;;;;;;;
2021/09/28 06:04:10;;;;;;;22.88;8.25;;;11.40;99.90;;;;;;5114596;28;20046;-83
2021/09/28 06:06:39;;;;;;;18.15;8.25;;;11.50;99.90;;;;;;5114541;28;20040;-83
2021/09/28 06:13:10;;;;;;;17.90;7.95;;;11.50;99.90;;;;;;5066880;28;20048;-83
2021/09/28 06:16:00;;;;;;;16.80;8.02;;;11.40;99.90;;;;;;5103332;28;20055;-83
2021/09/28 06:19:10;;;;;;;30.23;8.73;;;11.50;99.90;;;;;;5112873;28;20131;-82
2021/09/28 06:21:53;;;;;;;19.92;8.32;;;11.70;99.90;;;;;;5083832;28;20047;-82
2021/09/28 06:24:32;;;;;;;;;;;;;;;;;;;;;
2021/09/28 06:27:30;;;;;;;19.00;8.10;;;12.00;99.90;;;;;;5104361;28;20030;-82
2021/09/28 06:30:04;;;;;;;26.73;9.02;;;11.50;99.90;;;;;;5079492;28;20057;-82
2021/09/28 06:32:39;;;;;;;22.52;8.52;;;11.30;99.90;;;;;;5051595;28;20131;-82
2021/09/28 06:35:12;;;;;;;18.23;8.75;;;11.60;99.90;;;;;;5097325;28;20039;-82
2021/09/28 06:37:56;;;;;;;25.92;8.82;;;11.60;99.90;;;;;;5096294;28;20177;-82
2021/09/28 06:40:34;;;;;;;27.85;8.50;;;11.60;99.90;;;;;;5068690;28;20059;-82
2021/09/28 06:43:32;;;;;;;18.35;8.73;;;11.40;99.90;;;;;;5097413;28;20172;-82
2021/09/28 06:46:06;;;;;;;17.98;8.18;;;11.60;99.90;;;;;;5063614;28;20047;-82
2021/09/28 06:49:06;;;;;;;24.30;8.45;;;11.40;99.90;;;;;;5092923;27;20050;-82
2021/09/28 06:51:55;;;;;;;17.95;8.60;;;11.70;99.90;;;;;;5087242;27;20076;-82
2021/09/28 06:54:47;;;;;;;19.38;8.73;;;11.70;99.90;;;;;;5073231;27;20039;-82
2021/09/28 07:00:50;;;;;;;28.33;8.82;;;12.00;99.90;;;;;;5028756;28;20086;-82
2021/09/28 07:03:40;;;;;;;18.40;8.30;;;12.20;99.90;;;;;;5051363;28;20389;-82
2021/09/28 07:06:24;;;;;;;28.00;9.00;;;11.80;99.90;;;;;;5105219;27;20090;-82
2021/09/28 07:09:06;;;;;;;21.75;8.65;;;11.80;99.90;;;;;;5099091;27;20224;-83
2021/09/28 07:11:53;;;;;;;26.70;8.25;;;11.80;99.90;;;;;;5081359;27;20130;-82
2021/09/28 07:18:43;;;;;;;25.88;9.00;;;11.90;99.90;;;;;;4991838;28;20182;-82
2021/09/28 07:22:07;;;;;;;;;;;;;;;;;;;;;
2021/09/28 07:26:07;;;;;;;24.58;8.93;;;12.00;99.90;;;;;;4992443;28;20465;-83
2021/09/28 07:28:46;;;;;;;22.02;8.38;;;11.80;99.90;;;;;;5018286;28;20386;-82
2021/09/28 07:31:49;;;;;;;21.42;8.50;;;12.40;99.90;;;;;;5018192;28;20028;-82
2021/09/28 07:34:56;;;;;;;19.75;8.60;;;12.10;99.90;;;;;;5019230;28;20049;-82
2021/09/28 07:37:58;;;;;;;;;;;;;;;;;;;;;
2021/09/28 07:40:49;;;;;;;20.42;8.05;;;12.20;99.90;;;;;;5122223;27;20517;-82
2021/09/28 07:44:00;;;;;;;23.08;8.73;;;12.20;99.90;;;;;;5092203;28;20553;-82
2021/09/28 07:47:41;;;;;;;24.98;8.60;;;13.00;99.90;;;;;;5067191;28;20499;-82
2021/09/28 07:54:31;;;;;;;23.55;7.78;;;12.30;99.90;;;;;;5017329;28;20045;-82
2021/09/28 07:57:08;;;;;;;19.00;8.43;;;12.40;99.90;;;;;;5024789;28;20044;-81
2021/09/28 08:07:58;;;;;;;23.85;8.40;;;12.50;99.90;;;;;;5000513;28;20108;-82
2021/09/28 08:11:23;;;;;;;17.92;8.43;;;12.50;99.90;;;;;;4964644;28;20064;-83
2021/09/28 08:14:45;;;;;;;20.83;8.25;;;12.60;99.90;;;;;;4967724;28;20529;-82
2021/09/28 08:17:31;;;;;;;28.52;8.15;;;12.60;99.90;;;;;;4990327;28;20124;-83
2021/09/28 08:20:03;;;;;;;23.20;7.82;;;12.80;99.90;;;;;;5034005;28;20524;-82
2021/09/28 08:38:30;;;;;;;21.95;7.22;;;12.60;99.90;;;;;;4776949;30;20070;-83
2021/09/28 08:41:58;;;;;;;21.85;7.72;;;13.40;99.90;;;;;;4780451;29;20070;-84
2021/09/28 08:44:41;;;;;;;22.08;7.95;;;13.10;99.90;;;;;;4835267;29;20054;-82
2021/09/28 08:47:49;;;;;;;21.40;8.05;;;13.40;99.90;;;;;;4847575;28;20053;-84
2021/09/28 08:50:38;;;;;;;23.90;7.55;;;13.20;99.90;;;;;;4945810;28;20101;-83
2021/09/28 08:53:45;;;;;;;21.52;7.75;;;13.20;99.90;;;;;;4942755;28;20046;-83
2021/09/28 08:57:02;;;;;;;;;;;;;;;;;;;;;
2021/09/28 09:04:51;;;;;;;19.65;6.53;;;13.70;99.90;;;;;;5064357;28;20044;-84
2021/09/28 09:07:51;;;;;;;17.63;5.65;;;13.50;99.90;;;;;;5040425;28;20385;-83
2021/09/28 09:10:46;;;;;;;;;;;;;;;;;;;;;
2021/09/28 09:17:26;;;;;;;;;;;;;;;;;;;;;
2021/09/28 09:20:46;;;;;;;33.17;6.95;;;13.80;99.90;;;;;;5063289;28;20053;-84
2021/09/28 09:24:28;;;;;;;;;;;;;;;;;;;;;
2021/09/28 09:35:16;;;;;;;13.98;4.35;;;14.10;99.90;;;;;;5023200;28;20087;-84
2021/09/28 09:38:18;;;;;;;15.27;4.70;;;14.20;99.90;;;;;;5019656;28;20041;-84
2021/09/28 09:41:48;;;;;;;;;;;;;;;;;;;;;
2021/09/28 09:44:57;;;;;;;18.40;4.35;;;14.30;99.90;;;;;;5032111;28;20039;-84
2021/09/28 09:48:32;;;;;;;;;;;;;;;;;;;;;
2021/09/28 09:51:29;;;;;;;16.02;3.80;;;14.50;99.90;;;;;;5063159;28;20066;-84
2021/09/28 09:54:22;;;;;;;19.02;3.90;;;14.40;99.90;;;;;;5078936;28;20051;-85
2021/09/28 09:57:13;;;;;;;23.85;3.85;;;14.50;99.90;;;;;;5039346;28;20068;-84
2021/09/28 10:03:19;;;;;;;17.80;4.30;;;14.60;99.90;;;;;;5023829;28;20045;-84
2021/09/28 10:07:28;;;;;;;;;;;;;;;;;;;;;
2021/09/28 10:13:56;;;;;;;18.75;3.10;;;14.70;99.90;;;;;;4918419;28;20574;-84
2021/09/28 10:17:23;;;;;;;19.25;3.30;;;14.80;99.90;;;;;;4976291;28;20069;-83
2021/09/28 10:20:14;;;;;;;16.77;3.20;;;14.80;99.90;;;;;;4922950;29;20039;-83
2021/09/28 10:23:53;;;;;;;17.35;3.00;;;14.80;99.90;;;;;;4960005;28;20062;-84
2021/09/28 10:26:58;;;;;;;15.80;2.80;;;14.50;99.90;;;;;;4953461;28;20056;-84
2021/09/28 10:29:41;;;;;;;15.18;2.97;;;15.00;99.90;;;;;;5015669;28;20033;-83
2021/09/28 10:36:22;;;;;;;21.50;3.35;;;15.00;99.90;;;;;;5096286;28;20039;-83
2021/09/28 10:39:09;;;;;;;18.30;3.42;;;15.00;99.90;;;;;;5097219;28;20029;-84
2021/09/28 10:41:41;;;;;;;24.48;3.30;;;15.00;99.90;;;;;;5077790;28;20514;-84
2021/09/28 10:45:20;;;;;;;17.48;3.35;;;15.00;99.90;;;;;;5096291;28;20467;-84
2021/09/28 10:48:33;;;;;;;16.13;3.10;;;15.00;99.90;;;;;;4997642;28;20042;-84
2021/09/28 10:54:43;;;;;;;;;;;;;;;;;;;;;
2021/09/28 10:57:12;;;;;;;14.93;2.50;;;15.20;99.90;;;;;;4992960;28;20050;-84
2021/09/28 11:11:08;;;;;;;17.85;4.05;;;15.30;99.90;;;;;;4975027;28;20402;-84
2021/09/28 11:17:35;;;;;;;19.92;2.10;;;15.40;99.90;;;;;;5059645;28;20047;-83
2021/09/28 11:20:22;;;;;;;14.23;2.50;;;14.80;99.90;;;;;;5097703;27;20122;-84
2021/09/28 11:23:53;;;;;;;16.95;2.50;;;15.40;99.90;;;;;;5100503;27;20067;-84
2021/09/28 11:26:32;;;;;;;14.07;2.20;;;15.40;99.90;;;;;;5099351;27;20039;-84
2021/09/28 11:29:41;;;;;;;14.02;2.50;;;15.40;99.90;;;;;;5088923;27;20035;-83
2021/09/28 11:32:42;;;;;;;12.27;2.50;;;15.40;99.90;;;;;;5120467;27;20533;-84
2021/09/28 11:35:53;;;;;;;14.07;2.10;;;15.40;99.90;;;;;;5107776;27;20118;-84
2021/09/28 11:39:06;;;;;;;12.02;2.40;;;15.40;99.90;;;;;;5098810;27;20043;-83
2021/09/28 11:46:00;;;;;;;10.07;2.15;;;15.50;99.90;;;;;;5028929;27;20039;-84
2021/09/28 11:49:22;;;;;;;19.45;2.65;;;15.70;99.90;;;;;;5107460;27;20054;-85
2021/09/28 11:52:24;;;;;;;16.85;2.33;;;15.70;99.90;;;;;;5030890;28;20034;-83
2021/09/28 11:55:19;;;;;;;;;;;15.80;99.90;;;;;;5017231;28;20057;-83
2021/09/28 12:01:47;;;;;;;9.70;1.75;;;15.90;99.90;;;;;;5105284;28;20048;-83
2021/09/28 12:06:04;;;;;;;9.85;1.98;;;16.00;99.90;;;;;;5094445;28;20066;-83
2021/09/28 12:08:42;;;;;;;12.75;2.28;;;16.50;99.90;;;;;;5076435;28;20036;-83
2021/09/28 12:11:13;;;;;;;12.73;2.10;;;15.90;99.90;;;;;;5093433;28;20051;-83
2021/09/28 12:13:47;;;;;;;11.00;1.98;;;16.00;99.90;;;;;;5076884;28;20038;-83
2021/09/28 12:16:18;;;;;;;15.68;2.20;;;16.00;99.90;;;;;;5076145;28;20051;-83
2021/09/28 12:19:28;;;;;;;15.25;2.25;;;16.00;99.90;;;;;;5093667;28;20063;-83
2021/09/28 12:34:04;;;;;;;;;;;;;;;;;;;;;
2021/09/28 12:37:31;;;;;;;10.63;2.20;;;16.20;99.90;;;;;;4908561;29;20108;-83
2021/09/28 12:47:32;;;;;;;11.85;2.10;;;15.90;99.90;;;;;;4910210;29;20078;-83
2021/09/28 12:50:42;;;;;;;10.82;2.05;;;16.20;99.90;;;;;;4928887;28;20054;-84
2021/09/28 12:53:29;;;;;;;;;;;;;;;;;;;;;
2021/09/28 12:56:19;;;;;;;12.48;2.20;;;16.30;99.90;;;;;;4993427;28;20042;-83
2021/09/28 13:04:03;;;;;;;9.82;2.17;;;16.30;99.90;;;;;;5006865;28;20041;-84
2021/09/28 13:10:52;;;;;;;10.38;1.63;;;16.40;99.90;;;;;;4918594;28;20054;-84
2021/09/28 13:13:53;;;;;;;11.68;1.73;;;16.30;99.90;;;;;;5006242;28;20136;-84
2021/09/28 13:16:54;;;;;;;10.40;1.80;;;16.40;99.90;;;;;;4907945;29;20056;-84
2021/09/28 13:19:55;;;;;;;;;;;;;;;;;;;;;
2021/09/28 13:22:46;;;;;;;11.82;1.70;;;16.60;99.90;;;;;;4969863;28;20412;-83
2021/09/28 13:25:34;;;;;;;;;;;;;;;;;;;;;
2021/09/28 13:28:53;;;;;;;7.90;1.58;;;16.70;99.90;;;;;;5016087;28;20049;-83
2021/09/28 13:32:05;;;;;;;13.05;1.98;;;16.70;99.90;;;;;;5005154;28;20196;-83
2021/09/28 13:34:51;;;;;;;11.48;2.10;;;16.60;99.90;;;;;;4928730;29;20476;-85
2021/09/28 13:37:57;;;;;;;;;;;;;;;;;;;;;
2021/09/28 13:41:26;;;;;;;;;;;;;;;;;;;;;
2021/09/28 13:55:50;;;;;;;10.95;2.60;;;16.40;99.90;;;;;;4833896;29;20072;-84
2021/09/28 13:59:05;;;;;;;10.38;2.42;;;16.20;99.90;;;;;;4862937;29;20495;-83
2021/09/28 14:02:25;;;;;;;10.13;2.70;;;16.40;99.90;;;;;;4856477;29;20172;-84
2021/09/28 14:08:48;;;;;;;15.80;2.35;;;16.40;99.90;;;;;;4914221;29;20092;-85
2021/09/28 14:15:36;;;;;;;;;;;;;;;;;;;;;
2021/09/28 14:18:51;;;;;;;;;;;;;;;;;;;;;
2021/09/28 14:21:41;;;;;;;11.65;2.28;;;16.30;99.90;;;;;;5019850;28;20049;-84
2021/09/28 14:24:45;;;;;;;10.35;2.05;;;16.50;99.90;;;;;;5011237;28;20063;-83
2021/09/28 14:27:34;;;;;;;13.93;2.10;;;16.50;99.90;;;;;;4981575;28;20398;-84
2021/09/28 14:30:29;;;;;;;9.95;2.35;;;16.50;99.90;;;;;;4993546;28;20536;-84
2021/09/28 14:37:57;;;;;;;10.10;1.70;;;16.50;99.90;;;;;;5019931;28;20049;-84
2021/09/28 14:41:28;;;;;;;7.63;1.70;;;16.50;99.90;;;;;;4921446;28;20051;-84
2021/09/28 14:44:19;;;;;;;12.43;2.10;;;16.50;99.90;;;;;;4912543;29;20051;-84
2021/09/28 14:47:45;;;;;;;;;;;;;;;;;;;;;
2021/09/28 14:50:49;;;;;;;;;;;;;;;;;;;;;
2021/09/28 15:01:50;;;;;;;9.20;1.95;;;16.40;99.90;;;;;;4828661;29;20491;-85
2021/09/28 15:05:01;;;;;;;11.57;2.23;;;16.70;99.90;;;;;;4917642;28;20202;-85
2021/09/28 15:14:56;;;;;;;13.40;2.20;;;16.60;99.90;;;;;;4990552;28;20104;-86
2021/09/28 15:18:01;;;;;;;14.90;2.72;;;16.60;99.90;;;;;;4974363;28;20050;-85
2021/09/28 15:24:10;;;;;;;9.65;1.95;;;16.40;99.90;;;;;;5054184;28;20045;-85
2021/09/28 15:27:06;;;;;;;;;;;;;;;;;;;;;
2021/09/28 15:33:18;;;;;;;13.90;2.75;;;16.50;99.90;;;;;;5063152;28;20049;-84
2021/09/28 15:36:14;;;;;;;14.63;3.20;;;16.40;99.90;;;;;;5032158;28;20116;-84
2021/09/28 15:43:06;;;;;;;9.65;2.40;;;16.30;99.90;;;;;;5012302;28;20036;-84
2021/09/28 15:50:18;;;;;;;12.88;2.70;;;16.20;99.90;;;;;;4990823;28;20128;-84
2021/09/28 15:53:37;;;;;;;12.45;2.13;;;16.20;99.90;;;;;;4870300;29;20076;-84
2021/09/28 15:56:50;;;;;;;10.82;2.45;;;16.10;99.90;;;;;;4904455;29;20351;-85
2021/09/28 16:03:48;;;;;;;10.20;2.20;;;16.10;99.90;;;;;;4918394;28;20594;-84
2021/09/28 16:10:33;;;;;;;;;;;;;;;;;;;;;
2021/09/28 16:14:02;;;;;;;;;;;;;;;;;;;;;
2021/09/28 16:16:49;;;;;;;8.68;2.20;;;16.10;99.90;;;;;;4949609;28;20080;-85
2021/09/28 16:24:04;;;;;;;;;;;;;;;;;;;;;
2021/09/28 16:27:16;;;;;;;9.43;2.00;;;16.10;99.90;;;;;;4932516;29;20043;-84
2021/09/28 16:30:02;;;;;;;10.52;1.85;;;16.00;99.90;;;;;;4899900;29;20071;-84
2021/09/28 16:36:48;;;;;;;;;;;;;;;;;;;;;
2021/09/28 16:40:31;;;;;;;11.68;2.50;;;15.90;99.90;;;;;;4851940;29;20112;-84
2021/09/28 16:47:48;;;;;;;9.23;2.72;;;15.50;99.90;;;;;;4869633;29;20094;-84
2021/09/28 16:51:19;;;;;;;;;;;;;;;;;;;;;
2021/09/28 16:58:17;;;;;;;11.00;2.35;;;15.10;99.90;;;;;;4854725;29;20094;-83
2021/09/28 17:05:12;;;;;;;10.05;2.20;;;15.40;99.90;;;;;;4902218;28;20250;-83
2021/09/28 17:08:17;;;;;;;11.10;2.53;;;15.30;99.90;;;;;;4941366;28;20085;-84
2021/09/28 17:11:27;;;;;;;;;;;;;;;;;;;;;
2021/09/28 17:18:41;;;;;;;;;;;;;;;;;;;;;
2021/09/28 17:21:43;;;;;;;8.55;2.22;;;14.80;99.90;;;;;;4943235;29;20044;-83
2021/09/28 17:28:54;;;;;;;8.65;1.85;;;14.80;99.90;;;;;;4932407;29;20044;-84
2021/09/28 17:32:02;;;;;;;13.45;2.08;;;14.90;99.90;;;;;;4911010;29;20100;-84
2021/09/28 17:35:32;;;;;;;13.20;2.80;;;14.90;99.90;;;;;;4949840;29;20055;-85
2021/09/28 17:38:53;;;;;;;;;;;;;;;;;;;;;
2021/09/28 17:48:27;;;;;;;15.73;2.70;;;14.70;99.90;;;;;;4896982;29;20250;-84
2021/09/28 17:51:43;;;;;;;13.82;2.60;;;14.70;99.90;;;;;;4891177;29;20054;-84
2021/09/28 17:55:11;;;;;;;9.88;2.60;;;14.90;99.90;;;;;;4940239;28;20126;-84
2021/09/28 17:58:46;;;;;;;12.20;2.63;;;14.70;99.90;;;;;;4928575;29;20078;-84
2021/09/28 18:02:18;;;;;;;;;;;;;;;;;;;;;
2021/09/28 18:05:29;;;;;;;16.45;2.67;;;14.90;99.90;;;;;;4973521;28;20403;-84
2021/09/28 18:08:44;;;;;;;13.45;3.00;;;15.40;99.90;;;;;;5011330;28;20049;-84
2021/09/28 18:11:47;;;;;;;12.90;2.30;;;14.50;99.90;;;;;;5018534;28;20029;-84
2021/09/28 18:15:30;;;;;;;13.63;2.83;;;14.40;99.90;;;;;;5064270;28;20048;-84
2021/09/28 18:18:55;;;;;;;14.23;2.77;;;14.40;99.90;;;;;;4953248;28;20081;-84
2021/09/28 18:22:29;;;;;;;12.55;2.58;;;14.50;99.90;;;;;;5029657;28;20062;-83
2021/09/28 18:28:59;;;;;;;13.02;2.65;;;14.30;99.90;;;;;;4855512;29;20673;-83
2021/09/28 18:39:47;;;;;;;;;;;;;;;;;;;;;
2021/09/28 18:51:22;;;;;;;12.93;2.22;;;14.20;99.90;;;;;;4899863;29;20048;-83
2021/09/28 18:54:40;;;;;;;;;;;;;;;;;;;;;
2021/09/28 19:02:07;;;;;;;13.57;2.40;;;14.10;99.90;;;;;;4957413;28;20050;-83
2021/09/28 19:12:15;;;;;;;10.52;2.33;;;14.10;99.90;;;;;;4823882;29;20117;-85
2021/09/28 19:19:09;;;;;;;;;;;;;;;;;;;;;
2021/09/28 19:22:27;;;;;;;12.38;2.95;;;14.00;99.90;;;;;;4927516;28;20251;-84
2021/09/28 19:29:12;;;;;;;12.20;2.30;;;13.90;99.90;;;;;;4940801;28;20542;-83
2021/09/28 19:31:46;;;;;;;12.60;2.33;;;13.90;99.90;;;;;;4936213;28;20125;-84
2021/09/28 19:45:56;;;;;;;10.55;2.42;;;13.80;99.90;;;;;;4940765;28;20053;-84
2021/09/28 19:49:13;;;;;;;13.40;2.78;;;13.80;99.90;;;;;;4972803;28;20424;-84
2021/09/28 19:52:40;;;;;;;;;;;;;;;;;;;;;
2021/09/28 19:59:09;;;;;;;;;;;;;;;;;;;;;
2021/09/28 20:36:20;;;;;;;10.18;2.80;;;13.50;99.90;;;;;;4954814;28;20543;-84
2021/09/28 20:39:06;;;;;;;11.25;2.47;;;13.40;99.90;;;;;;4945906;28;20168;-84